Time;durP1;ratioP1;P1;durP2;ratioP2;P2;SDS_P1;SDS_P2;PMS_P1;PMS_P2;Temp;Humidity;BMP_temperature;BMP_pressure;BME280_temperature;BME280_humidity;BME280_pressure;Samples;Min_cycle;Max_cycle;Signal;HPM_P1;HPM_P2
2022/07/03 00:01:36;;;;;;;0.03;0.03;;;;;;;;;;5024986;28;20044;-90
2022/07/03 00:04:06;;;;;;;0.10;0.10;;;;;;;;;;5016825;28;20034;-90
2022/07/03 00:06:33;;;;;;;0.03;0.03;;;;;;;;;;5033751;28;20467;-90
2022/07/03 00:08:59;;;;;;;0.00;0.00;;;;;;;;;;5042715;28;20041;-90
2022/07/03 00:11:26;;;;;;;0.10;0.10;;;;;;;;;;5028827;28;20649;-90
2022/07/03 00:13:52;;;;;;;0.10;0.10;;;;;;;;;;5037022;28;20045;-90
2022/07/03 00:16:18;;;;;;;0.10;0.10;;;;;;;;;;5038119;28;20473;-90
2022/07/03 00:18:44;;;;;;;0.10;0.10;;;;;;;;;;5041871;28;20052;-90
2022/07/03 00:21:11;;;;;;;0.10;0.10;;;;;;;;;;5038924;28;20040;-90
2022/07/03 00:23:43;;;;;;;0.10;0.10;;;;;;;;;;5026609;28;20040;-89
2022/07/03 00:26:11;;;;;;;0.10;0.10;;;;;;;;;;5038373;28;20056;-88
2022/07/03 00:28:38;;;;;;;0.00;0.00;;;;;;;;;;5038447;28;20037;-89
2022/07/03 00:31:11;;;;;;;0.10;0.10;;;;;;;;;;5027529;28;20041;-89
2022/07/03 00:33:38;;;;;;;0.10;0.10;;;;;;;;;;5031546;28;20046;-89
2022/07/03 00:36:04;;;;;;;0.00;0.00;;;;;;;;;;5034370;28;20053;-88
2022/07/03 00:38:30;;;;;;;0.10;0.10;;;;;;;;;;5036240;28;20487;-88
2022/07/03 00:40:56;;;;;;;0.05;0.05;;;;;;;;;;5050000;28;20029;-89
2022/07/03 00:43:25;;;;;;;0.10;0.10;;;;;;;;;;5025683;28;20047;-88
2022/07/03 00:45:51;;;;;;;0.15;0.15;;;;;;;;;;5040610;28;20033;-89
2022/07/03 00:48:19;;;;;;;0.00;0.00;;;;;;;;;;5032626;28;20033;-89
2022/07/03 00:50:46;;;;;;;0.10;0.10;;;;;;;;;;5031060;28;20037;-90
2022/07/03 00:53:13;;;;;;;0.05;0.05;;;;;;;;;;5038305;28;20112;-90
2022/07/03 00:55:43;;;;;;;0.00;0.00;;;;;;;;;;5029754;28;20045;-90
2022/07/03 00:58:09;;;;;;;0.10;0.10;;;;;;;;;;5024427;28;20041;-90
2022/07/03 01:00:42;;;;;;;0.00;0.00;;;;;;;;;;5006191;28;20049;-89
2022/07/03 01:03:13;;;;;;;0.08;0.08;;;;;;;;;;5028308;28;20037;-88
2022/07/03 01:05:43;;;;;;;0.03;0.03;;;;;;;;;;5022394;28;20064;-89
2022/07/03 01:08:16;;;;;;;0.10;0.10;;;;;;;;;;5030671;28;20037;-89
2022/07/03 01:10:48;;;;;;;0.10;0.10;;;;;;;;;;5038546;28;20033;-89
2022/07/03 01:13:17;;;;;;;0.03;0.03;;;;;;;;;;5027632;28;20495;-90
2022/07/03 01:15:59;;;;;;;0.10;0.10;;;;;;;;;;5032960;28;20045;-89
2022/07/03 01:18:45;;;;;;;0.10;0.10;;;;;;;;;;5038864;28;20465;-89
2022/07/03 01:21:16;;;;;;;0.10;0.10;;;;;;;;;;5033731;28;20029;-90
2022/07/03 01:24:01;;;;;;;0.10;0.10;;;;;;;;;;5031200;28;20065;-90
2022/07/03 01:26:30;;;;;;;0.00;0.00;;;;;;;;;;5030656;28;20037;-88
2022/07/03 01:28:59;;;;;;;0.10;0.10;;;;;;;;;;5021305;28;20081;-89
2022/07/03 01:31:26;;;;;;;0.10;0.10;;;;;;;;;;5030430;28;20069;-90
2022/07/03 01:33:52;;;;;;;0.10;0.10;;;;;;;;;;5032086;28;20048;-89
2022/07/03 01:36:22;;;;;;;0.00;0.00;;;;;;;;;;5033672;28;20046;-89
2022/07/03 01:38:49;;;;;;;0.10;0.10;;;;;;;;;;5047297;28;20045;-90
2022/07/03 01:41:15;;;;;;;0.15;0.15;;;;;;;;;;5036005;28;20040;-90
2022/07/03 01:43:48;;;;;;;0.10;0.10;;;;;;;;;;5041249;28;20029;-90
2022/07/03 01:46:16;;;;;;;0.10;0.10;;;;;;;;;;5032307;28;20483;-89
2022/07/03 01:48:43;;;;;;;0.00;0.00;;;;;;;;;;5022224;28;20407;-89
2022/07/03 01:51:10;;;;;;;0.08;0.08;;;;;;;;;;5030234;28;20041;-89
2022/07/03 01:53:37;;;;;;;0.10;0.10;;;;;;;;;;5036577;28;20483;-87
2022/07/03 01:56:03;;;;;;;0.10;0.10;;;;;;;;;;5020831;28;20507;-89
2022/07/03 01:58:29;;;;;;;0.10;0.10;;;;;;;;;;5037243;28;20045;-88
2022/07/03 02:01:03;;;;;;;0.20;0.20;;;;;;;;;;5032688;28;20127;-88
2022/07/03 02:03:31;;;;;;;0.10;0.10;;;;;;;;;;5034626;28;20041;-88
2022/07/03 02:06:08;;;;;;;0.10;0.10;;;;;;;;;;5029814;28;20487;-88
2022/07/03 02:08:44;;;;;;;0.10;0.10;;;;;;;;;;5046412;28;20141;-88
2022/07/03 02:11:15;;;;;;;0.10;0.10;;;;;;;;;;5037594;28;20517;-88
2022/07/03 02:13:52;;;;;;;0.10;0.10;;;;;;;;;;5037687;28;20037;-88
2022/07/03 02:16:22;;;;;;;0.00;0.00;;;;;;;;;;5050165;28;20051;-89
2022/07/03 02:18:56;;;;;;;0.10;0.10;;;;;;;;;;5027646;28;20051;-88
2022/07/03 02:21:23;;;;;;;0.10;0.10;;;;;;;;;;5029080;28;20041;-90
2022/07/03 02:23:52;;;;;;;0.38;0.38;;;;;;;;;;5026873;28;20034;-89
2022/07/03 02:26:18;;;;;;;0.20;0.20;;;;;;;;;;5028299;28;20046;-90
2022/07/03 02:28:51;;;;;;;0.03;0.03;;;;;;;;;;5028612;28;20052;-89
2022/07/03 02:31:19;;;;;;;0.20;0.20;;;;;;;;;;5036908;28;20048;-89
2022/07/03 02:33:45;;;;;;;0.10;0.10;;;;;;;;;;5021747;28;20048;-89
2022/07/03 02:36:12;;;;;;;0.10;0.10;;;;;;;;;;5026537;28;20037;-89
2022/07/03 02:38:38;;;;;;;0.10;0.10;;;;;;;;;;5026677;28;20120;-88
2022/07/03 02:41:09;;;;;;;0.20;0.20;;;;;;;;;;5036399;28;20045;-89
2022/07/03 02:43:35;;;;;;;0.10;0.10;;;;;;;;;;5026555;28;20084;-89
2022/07/03 02:49:07;;;;;;;;;;;;;;;;;;5042804;28;20482;-89
2022/07/03 02:51:36;;;;;;;0.10;0.10;;;;;;;;;;5045409;28;19917;-89
2022/07/03 02:54:09;;;;;;;0.08;0.08;;;;;;;;;;5019857;28;20076;-89
2022/07/03 02:56:43;;;;;;;0.10;0.10;;;;;;;;;;5038769;28;20052;-88
2022/07/03 02:59:14;;;;;;;0.00;0.00;;;;;;;;;;5027491;28;20046;-89
2022/07/03 03:02:10;;;;;;;0.10;0.10;;;;;;;;;;5024395;28;20041;-89
2022/07/03 03:04:41;;;;;;;0.10;0.10;;;;;;;;;;5025267;28;20073;-89
2022/07/03 03:07:17;;;;;;;0.00;0.00;;;;;;;;;;5027701;28;20033;-89
2022/07/03 03:09:44;;;;;;;0.00;0.00;;;;;;;;;;5016204;28;20045;-89
2022/07/03 03:12:10;;;;;;;0.00;0.00;;;;;;;;;;5033786;28;20502;-88
2022/07/03 03:14:41;;;;;;;0.10;0.10;;;;;;;;;;5011795;28;20048;-89
2022/07/03 03:17:07;;;;;;;0.00;0.00;;;;;;;;;;5024089;28;20074;-89
2022/07/03 03:19:37;;;;;;;4.57;2.83;;;;;;;;;;5026912;28;20045;-89
2022/07/03 03:22:15;;;;;;;0.03;0.03;;;;;;;;;;5037775;28;20033;-89
2022/07/03 03:24:41;;;;;;;0.20;0.20;;;;;;;;;;5026215;28;20034;-89
2022/07/03 03:27:08;;;;;;;0.00;0.00;;;;;;;;;;5038132;28;20041;-89
2022/07/03 03:29:34;;;;;;;0.10;0.10;;;;;;;;;;5023413;28;20514;-89
2022/07/03 03:32:00;;;;;;;0.20;0.20;;;;;;;;;;5042679;28;20076;-89
2022/07/03 03:34:26;;;;;;;0.20;0.20;;;;;;;;;;5032999;28;20152;-89
2022/07/03 03:36:53;;;;;;;0.20;0.20;;;;;;;;;;5033332;28;20254;-88
2022/07/03 03:39:19;;;;;;;0.10;0.10;;;;;;;;;;5044296;28;20107;-88
2022/07/03 03:41:45;;;;;;;0.10;0.10;;;;;;;;;;5039326;28;20033;-89
2022/07/03 03:44:11;;;;;;;0.10;0.10;;;;;;;;;;5036518;28;20073;-88
2022/07/03 03:46:37;;;;;;;0.10;0.10;;;;;;;;;;5031747;28;20491;-88
2022/07/03 03:49:03;;;;;;;0.20;0.20;;;;;;;;;;5041938;28;20037;-88
2022/07/03 03:51:29;;;;;;;0.10;0.10;;;;;;;;;;5025322;28;20051;-88
2022/07/03 03:53:55;;;;;;;0.10;0.10;;;;;;;;;;5022855;28;20098;-88
2022/07/03 03:56:21;;;;;;;0.10;0.10;;;;;;;;;;5032863;28;20045;-88
2022/07/03 03:58:47;;;;;;;0.00;0.00;;;;;;;;;;5032156;28;20048;-88
2022/07/03 04:01:13;;;;;;;0.00;0.00;;;;;;;;;;5040536;28;20116;-88
2022/07/03 04:03:41;;;;;;;0.00;0.00;;;;;;;;;;5039096;28;20048;-89
2022/07/03 04:06:07;;;;;;;0.00;0.00;;;;;;;;;;5042310;28;20063;-88
2022/07/03 04:08:34;;;;;;;0.10;0.10;;;;;;;;;;5031732;28;20037;-89
2022/07/03 04:11:00;;;;;;;0.00;0.00;;;;;;;;;;5036405;28;20080;-89
2022/07/03 04:13:26;;;;;;;0.10;0.10;;;;;;;;;;5027243;28;20090;-89
2022/07/03 04:15:52;;;;;;;0.10;0.10;;;;;;;;;;5022508;28;20045;-89
2022/07/03 04:18:18;;;;;;;0.00;0.00;;;;;;;;;;5025421;28;20037;-89
2022/07/03 04:20:45;;;;;;;0.10;0.10;;;;;;;;;;5023441;28;20124;-89
2022/07/03 04:23:11;;;;;;;0.10;0.10;;;;;;;;;;5039280;28;20697;-88
2022/07/03 04:25:37;;;;;;;0.05;0.05;;;;;;;;;;5035515;28;20033;-89
2022/07/03 04:28:03;;;;;;;0.05;0.05;;;;;;;;;;5022420;28;20087;-88
2022/07/03 04:30:29;;;;;;;0.00;0.00;;;;;;;;;;5028884;28;20068;-89
2022/07/03 04:32:55;;;;;;;0.17;0.17;;;;;;;;;;5027325;28;20037;-89
2022/07/03 04:35:21;;;;;;;0.15;0.15;;;;;;;;;;5026207;28;20550;-88
2022/07/03 04:37:47;;;;;;;0.10;0.10;;;;;;;;;;5021770;28;20402;-89
2022/07/03 04:40:14;;;;;;;0.10;0.10;;;;;;;;;;5039172;28;20046;-88
2022/07/03 04:42:40;;;;;;;0.00;0.00;;;;;;;;;;5034826;28;20040;-88
2022/07/03 04:45:07;;;;;;;0.00;0.00;;;;;;;;;;5031570;28;20073;-88
2022/07/03 04:47:33;;;;;;;0.10;0.10;;;;;;;;;;5031262;28;20021;-88
2022/07/03 04:49:59;;;;;;;0.10;0.10;;;;;;;;;;5034785;28;20494;-89
2022/07/03 04:52:25;;;;;;;0.10;0.10;;;;;;;;;;5028149;28;20047;-87
2022/07/03 04:54:51;;;;;;;0.10;0.10;;;;;;;;;;5042513;28;20120;-88
2022/07/03 04:57:17;;;;;;;0.10;0.10;;;;;;;;;;5035720;28;20439;-89
2022/07/03 04:59:43;;;;;;;0.10;0.10;;;;;;;;;;5024593;28;20044;-89
2022/07/03 05:02:09;;;;;;;0.00;0.00;;;;;;;;;;5033905;28;20040;-87
2022/07/03 05:04:35;;;;;;;0.00;0.00;;;;;;;;;;5023461;28;20041;-88
2022/07/03 05:07:01;;;;;;;0.10;0.10;;;;;;;;;;5030989;28;20064;-90
2022/07/03 05:09:27;;;;;;;0.08;0.08;;;;;;;;;;5028077;28;20064;-89
2022/07/03 05:11:53;;;;;;;0.00;0.00;;;;;;;;;;5033518;28;20487;-89
2022/07/03 05:14:19;;;;;;;0.10;0.10;;;;;;;;;;5034402;28;20041;-88
2022/07/03 05:16:45;;;;;;;0.00;0.00;;;;;;;;;;5035935;28;20042;-89
2022/07/03 05:19:11;;;;;;;0.10;0.10;;;;;;;;;;5024543;28;20071;-89
2022/07/03 05:21:37;;;;;;;0.10;0.10;;;;;;;;;;5035273;28;20033;-89
2022/07/03 05:24:03;;;;;;;0.00;0.00;;;;;;;;;;5038247;28;20491;-89
2022/07/03 05:26:29;;;;;;;0.00;0.00;;;;;;;;;;5030989;28;20063;-89
2022/07/03 05:28:55;;;;;;;0.00;0.00;;;;;;;;;;5024477;28;20127;-89
2022/07/03 05:31:21;;;;;;;0.00;0.00;;;;;;;;;;5032630;28;20109;-88
2022/07/03 05:33:48;;;;;;;0.05;0.05;;;;;;;;;;5031424;28;20041;-89
2022/07/03 05:36:14;;;;;;;0.05;0.05;;;;;;;;;;5030927;28;20514;-89
2022/07/03 05:41:24;;;;;;;0.10;0.10;;;;;;;;;;5057151;28;20049;-90
2022/07/03 05:43:50;;;;;;;0.10;0.10;;;;;;;;;;5034554;28;20073;-89
2022/07/03 05:46:16;;;;;;;0.00;0.00;;;;;;;;;;5035133;28;20041;-88
2022/07/03 05:48:43;;;;;;;0.15;0.15;;;;;;;;;;5035016;28;20065;-89
2022/07/03 05:51:09;;;;;;;0.00;0.00;;;;;;;;;;5040146;28;20083;-89
2022/07/03 05:53:35;;;;;;;0.20;0.20;;;;;;;;;;5034505;28;20068;-89
2022/07/03 05:56:01;;;;;;;0.00;0.00;;;;;;;;;;5032179;28;20042;-89
2022/07/03 05:58:36;;;;;;;0.10;0.10;;;;;;;;;;5036293;28;20033;-89
2022/07/03 06:01:02;;;;;;;0.00;0.00;;;;;;;;;;5037418;28;20076;-89
2022/07/03 06:03:28;;;;;;;0.00;0.00;;;;;;;;;;5020779;28;20053;-90
2022/07/03 06:05:54;;;;;;;0.10;0.10;;;;;;;;;;5029270;28;20515;-89
2022/07/03 06:08:20;;;;;;;0.20;0.20;;;;;;;;;;5032572;28;20083;-89
2022/07/03 06:10:46;;;;;;;0.00;0.00;;;;;;;;;;5029317;28;20040;-90
2022/07/03 06:13:12;;;;;;;0.08;0.08;;;;;;;;;;5033718;28;20030;-89
2022/07/03 06:15:38;;;;;;;0.00;0.00;;;;;;;;;;5031662;28;20036;-88
2022/07/03 06:18:04;;;;;;;0.00;0.00;;;;;;;;;;5032088;28;20071;-88
2022/07/03 06:20:30;;;;;;;0.03;0.03;;;;;;;;;;5035661;28;20045;-87
2022/07/03 06:22:56;;;;;;;0.00;0.00;;;;;;;;;;5021169;28;20037;-89
2022/07/03 06:25:22;;;;;;;0.00;0.00;;;;;;;;;;5021912;28;20083;-88
2022/07/03 06:27:48;;;;;;;0.00;0.00;;;;;;;;;;5023085;28;20041;-89
2022/07/03 06:30:14;;;;;;;0.00;0.00;;;;;;;;;;5035176;28;20495;-90
2022/07/03 06:32:40;;;;;;;0.10;0.10;;;;;;;;;;5021416;28;20072;-89
2022/07/03 06:35:06;;;;;;;0.10;0.10;;;;;;;;;;5050887;28;20040;-89
2022/07/03 06:37:32;;;;;;;0.10;0.10;;;;;;;;;;5026304;28;20060;-89
2022/07/03 06:39:58;;;;;;;0.10;0.10;;;;;;;;;;5028463;28;20767;-88
2022/07/03 06:42:24;;;;;;;0.08;0.08;;;;;;;;;;5039887;28;20045;-89
2022/07/03 06:44:50;;;;;;;0.10;0.10;;;;;;;;;;5038977;28;20041;-89
2022/07/03 06:47:16;;;;;;;0.00;0.00;;;;;;;;;;5031272;28;20045;-90
2022/07/03 06:49:43;;;;;;;0.05;0.05;;;;;;;;;;5031783;28;20045;-90
2022/07/03 06:52:10;;;;;;;0.10;0.10;;;;;;;;;;5029893;28;20041;-89
2022/07/03 06:54:39;;;;;;;0.10;0.10;;;;;;;;;;5039289;28;20104;-90
2022/07/03 06:57:05;;;;;;;0.00;0.00;;;;;;;;;;5039550;28;20033;-90
2022/07/03 06:59:31;;;;;;;0.00;0.00;;;;;;;;;;5034495;28;20034;-90
2022/07/03 07:01:57;;;;;;;0.10;0.10;;;;;;;;;;5048621;28;20051;-89
2022/07/03 07:04:23;;;;;;;0.00;0.00;;;;;;;;;;5046503;28;20069;-90
2022/07/03 07:06:49;;;;;;;0.00;0.00;;;;;;;;;;5026942;28;20096;-89
2022/07/03 07:09:15;;;;;;;0.08;0.08;;;;;;;;;;5035807;28;20036;-89
2022/07/03 07:11:41;;;;;;;0.10;0.10;;;;;;;;;;5026915;28;20042;-90
2022/07/03 07:14:07;;;;;;;0.00;0.00;;;;;;;;;;5035005;28;20048;-90
2022/07/03 07:16:33;;;;;;;0.05;0.05;;;;;;;;;;5037099;28;20487;-90
2022/07/03 07:18:59;;;;;;;0.10;0.10;;;;;;;;;;5039098;28;20043;-90
2022/07/03 07:21:25;;;;;;;0.00;0.00;;;;;;;;;;5034578;28;20043;-90
2022/07/03 07:23:52;;;;;;;0.05;0.05;;;;;;;;;;5043611;28;20044;-90
2022/07/03 07:26:20;;;;;;;0.00;0.00;;;;;;;;;;5038273;28;20109;-90
2022/07/03 07:28:46;;;;;;;0.00;0.00;;;;;;;;;;5040516;28;20049;-90
2022/07/03 07:31:12;;;;;;;0.00;0.00;;;;;;;;;;5024339;28;20052;-90
2022/07/03 07:33:38;;;;;;;0.05;0.05;;;;;;;;;;5039392;28;20067;-90
2022/07/03 07:36:04;;;;;;;0.00;0.00;;;;;;;;;;5039450;28;20410;-89
2022/07/03 07:38:30;;;;;;;0.10;0.10;;;;;;;;;;5035706;28;20041;-90
2022/07/03 07:40:56;;;;;;;0.00;0.00;;;;;;;;;;5024321;28;20040;-90
2022/07/03 07:43:22;;;;;;;0.00;0.00;;;;;;;;;;5029450;28;20120;-90
2022/07/03 07:45:49;;;;;;;0.10;0.10;;;;;;;;;;5028179;28;20037;-90
2022/07/03 07:48:15;;;;;;;0.08;0.08;;;;;;;;;;5041029;28;20041;-90
2022/07/03 07:50:41;;;;;;;0.00;0.00;;;;;;;;;;5040464;28;20536;-89
2022/07/03 07:53:07;;;;;;;0.00;0.00;;;;;;;;;;5025019;28;20165;-91
2022/07/03 07:55:33;;;;;;;0.17;0.17;;;;;;;;;;5036379;28;20045;-89
2022/07/03 07:57:59;;;;;;;0.10;0.10;;;;;;;;;;5035549;28;20158;-90
2022/07/03 08:00:25;;;;;;;0.10;0.10;;;;;;;;;;5034485;28;20081;-91
2022/07/03 08:05:35;;;;;;;0.10;0.10;;;;;;;;;;5039948;28;20119;-90
2022/07/03 08:08:15;;;;;;;0.00;0.00;;;;;;;;;;5024094;28;20037;-89
2022/07/03 08:10:44;;;;;;;0.00;0.00;;;;;;;;;;5035990;28;20518;-90
2022/07/03 08:13:11;;;;;;;0.10;0.10;;;;;;;;;;5032308;28;20041;-91
2022/07/03 08:15:37;;;;;;;0.00;0.00;;;;;;;;;;5034285;28;20037;-90
2022/07/03 08:18:03;;;;;;;0.10;0.10;;;;;;;;;;5033054;28;20499;-91
2022/07/03 08:20:30;;;;;;;0.00;0.00;;;;;;;;;;5052418;28;20075;-90
2022/07/03 08:22:57;;;;;;;0.00;0.00;;;;;;;;;;5030593;28;20034;-90
2022/07/03 08:25:23;;;;;;;0.10;0.10;;;;;;;;;;5039893;28;20121;-89
2022/07/03 08:27:49;;;;;;;0.10;0.10;;;;;;;;;;5032346;28;20574;-91
2022/07/03 08:30:17;;;;;;;0.00;0.00;;;;;;;;;;5025547;28;20183;-90
2022/07/03 08:32:46;;;;;;;0.00;0.00;;;;;;;;;;5029079;28;20041;-90
2022/07/03 08:35:12;;;;;;;0.00;0.00;;;;;;;;;;5034968;28;20032;-90
2022/07/03 08:37:40;;;;;;;0.00;0.00;;;;;;;;;;5034737;28;20069;-90
2022/07/03 08:40:07;;;;;;;0.00;0.00;;;;;;;;;;5033884;28;20037;-90
2022/07/03 08:42:33;;;;;;;0.10;0.10;;;;;;;;;;5032122;28;20037;-90
2022/07/03 08:45:00;;;;;;;0.00;0.00;;;;;;;;;;5039848;28;20116;-91
2022/07/03 08:47:27;;;;;;;0.10;0.10;;;;;;;;;;5038876;28;20044;-90
2022/07/03 08:49:55;;;;;;;0.00;0.00;;;;;;;;;;5033526;28;20127;-89
2022/07/03 08:52:22;;;;;;;0.00;0.00;;;;;;;;;;5022745;28;20064;-90
2022/07/03 08:54:50;;;;;;;0.00;0.00;;;;;;;;;;5032055;28;20384;-89
2022/07/03 08:57:17;;;;;;;0.00;0.00;;;;;;;;;;5033045;28;20450;-89
2022/07/03 08:59:46;;;;;;;0.00;0.00;;;;;;;;;;5030054;28;20379;-89
2022/07/03 09:02:13;;;;;;;0.03;0.03;;;;;;;;;;5049762;28;20037;-89
2022/07/03 09:04:39;;;;;;;0.00;0.00;;;;;;;;;;5011372;28;20487;-90
2022/07/03 09:07:07;;;;;;;0.10;0.10;;;;;;;;;;5016907;28;20124;-90
2022/07/03 09:09:34;;;;;;;0.00;0.00;;;;;;;;;;5019507;28;20051;-90
2022/07/03 09:12:00;;;;;;;0.00;0.00;;;;;;;;;;5025185;28;20044;-90
2022/07/03 09:14:26;;;;;;;0.10;0.10;;;;;;;;;;5020722;28;20052;-89
2022/07/03 09:16:52;;;;;;;0.00;0.00;;;;;;;;;;5036163;28;20509;-90
2022/07/03 09:19:38;;;;;;;0.00;0.00;;;;;;;;;;5025697;28;20033;-88
2022/07/03 09:22:24;;;;;;;0.03;0.03;;;;;;;;;;5026663;28;20033;-89
2022/07/03 09:24:51;;;;;;;0.03;0.03;;;;;;;;;;5023573;28;20045;-89
2022/07/03 09:27:19;;;;;;;0.00;0.00;;;;;;;;;;5021831;28;20072;-90
2022/07/03 09:29:57;;;;;;;0.00;0.00;;;;;;;;;;5008523;28;20041;-90
2022/07/03 09:32:24;;;;;;;0.00;0.00;;;;;;;;;;5021065;28;20037;-91
2022/07/03 09:34:50;;;;;;;0.00;0.00;;;;;;;;;;5015383;28;20454;-88
2022/07/03 09:37:25;;;;;;;0.00;0.00;;;;;;;;;;5023461;28;20510;-90
2022/07/03 09:39:58;;;;;;;0.00;0.00;;;;;;;;;;5025221;28;20041;-90
2022/07/03 09:42:25;;;;;;;0.00;0.00;;;;;;;;;;5015282;28;20045;-90
2022/07/03 09:44:54;;;;;;;0.10;0.10;;;;;;;;;;5022350;28;20033;-90
2022/07/03 09:47:24;;;;;;;0.10;0.10;;;;;;;;;;5021020;28;20033;-89
2022/07/03 09:49:54;;;;;;;0.08;0.08;;;;;;;;;;5023237;28;20120;-89
2022/07/03 09:52:29;;;;;;;0.10;0.10;;;;;;;;;;5040371;28;20096;-89
2022/07/03 09:54:56;;;;;;;0.00;0.00;;;;;;;;;;5024150;28;20131;-90
2022/07/03 09:57:23;;;;;;;0.00;0.00;;;;;;;;;;5019259;28;20052;-89
2022/07/03 09:59:49;;;;;;;0.00;0.00;;;;;;;;;;5040471;28;20044;-89
2022/07/03 10:02:15;;;;;;;0.00;0.00;;;;;;;;;;5020900;28;20614;-90
2022/07/03 10:04:41;;;;;;;0.00;0.00;;;;;;;;;;5042285;28;20094;-88
2022/07/03 10:07:07;;;;;;;0.10;0.10;;;;;;;;;;5031231;28;20493;-88
2022/07/03 10:09:34;;;;;;;0.10;0.10;;;;;;;;;;5035958;28;20093;-88
2022/07/03 10:12:02;;;;;;;0.00;0.00;;;;;;;;;;5030533;28;20122;-89
2022/07/03 10:14:30;;;;;;;0.10;0.10;;;;;;;;;;5036763;28;20049;-88
2022/07/03 10:20:26;;;;;;;0.00;0.00;;;;;;;;;;5043322;28;20049;-90
2022/07/03 10:22:52;;;;;;;0.00;0.00;;;;;;;;;;5027294;28;20037;-87
2022/07/03 10:25:18;;;;;;;0.00;0.00;;;;;;;;;;5027285;28;20143;-88
2022/07/03 10:27:48;;;;;;;0.00;0.00;;;;;;;;;;5039824;28;20083;-88
2022/07/03 10:30:21;;;;;;;0.00;0.00;;;;;;;;;;5053284;28;20071;-88
2022/07/03 10:32:51;;;;;;;0.00;0.00;;;;;;;;;;5031920;28;20045;-88
2022/07/03 10:35:33;;;;;;;0.10;0.10;;;;;;;;;;5031553;28;20096;-88
2022/07/03 10:37:59;;;;;;;0.10;0.10;;;;;;;;;;5054004;28;20045;-89
2022/07/03 10:46:22;;;;;;;0.03;0.03;;;;;;;;;;5051480;28;20048;-90
2022/07/03 10:48:59;;;;;;;0.00;0.00;;;;;;;;;;5037771;28;20045;-89
2022/07/03 10:51:26;;;;;;;0.00;0.00;;;;;;;;;;5039107;28;20052;-89
2022/07/03 10:54:12;;;;;;;0.08;0.08;;;;;;;;;;5035272;28;20068;-88
2022/07/03 10:56:57;;;;;;;0.00;0.00;;;;;;;;;;5031804;28;20037;-89
2022/07/03 10:59:23;;;;;;;0.00;0.00;;;;;;;;;;5027194;28;20044;-89
2022/07/03 11:01:49;;;;;;;0.05;0.05;;;;;;;;;;5036510;28;20060;-89
2022/07/03 11:04:15;;;;;;;0.10;0.10;;;;;;;;;;5042587;28;20041;-88
2022/07/03 11:06:44;;;;;;;0.00;0.00;;;;;;;;;;5036905;28;20033;-89
2022/07/03 11:09:14;;;;;;;0.00;0.00;;;;;;;;;;5032295;28;20037;-92
2022/07/03 11:11:56;;;;;;;0.10;0.10;;;;;;;;;;5022969;28;20514;-88
2022/07/03 11:14:22;;;;;;;0.00;0.00;;;;;;;;;;5038017;28;20051;-89
2022/07/03 11:16:48;;;;;;;0.10;0.10;;;;;;;;;;5020822;28;20056;-89
2022/07/03 11:19:15;;;;;;;0.00;0.00;;;;;;;;;;5030389;28;20041;-89
2022/07/03 11:21:50;;;;;;;0.00;0.00;;;;;;;;;;5030642;28;20483;-90
2022/07/03 11:24:27;;;;;;;0.00;0.00;;;;;;;;;;5030902;28;20041;-90
2022/07/03 11:27:14;;;;;;;0.00;0.00;;;;;;;;;;5031398;28;20049;-91
2022/07/03 11:29:40;;;;;;;0.00;0.00;;;;;;;;;;5035907;28;20048;-90
2022/07/03 11:32:25;;;;;;;0.00;0.00;;;;;;;;;;5037606;28;20041;-90
2022/07/03 11:34:51;;;;;;;0.00;0.00;;;;;;;;;;5033363;28;20047;-92
2022/07/03 11:37:20;;;;;;;0.00;0.00;;;;;;;;;;5043487;28;20101;-89
2022/07/03 11:39:48;;;;;;;0.00;0.00;;;;;;;;;;5024742;28;20037;-89
2022/07/03 11:42:14;;;;;;;0.00;0.00;;;;;;;;;;5028746;28;20072;-89
2022/07/03 11:44:43;;;;;;;0.00;0.00;;;;;;;;;;5040617;28;20040;-92
2022/07/03 11:47:10;;;;;;;0.00;0.00;;;;;;;;;;5034404;28;20060;-89
2022/07/03 11:49:38;;;;;;;0.00;0.00;;;;;;;;;;5037723;28;20522;-88
2022/07/03 11:52:05;;;;;;;0.00;0.00;;;;;;;;;;5030163;28;20038;-90
2022/07/03 11:54:32;;;;;;;0.00;0.00;;;;;;;;;;5033708;28;20049;-89
2022/07/03 11:57:00;;;;;;;0.00;0.00;;;;;;;;;;5052437;28;20053;-96
2022/07/03 11:59:28;;;;;;;0.00;0.00;;;;;;;;;;5037772;28;20038;-93
2022/07/03 12:02:01;;;;;;;0.10;0.10;;;;;;;;;;5021347;28;20037;-92
2022/07/03 12:04:28;;;;;;;0.00;0.00;;;;;;;;;;5033605;28;20038;-90
2022/07/03 12:06:56;;;;;;;0.00;0.00;;;;;;;;;;5031634;28;20048;-89
2022/07/03 12:09:36;;;;;;;0.00;0.00;;;;;;;;;;5032412;28;20044;-90
2022/07/03 12:12:03;;;;;;;0.00;0.00;;;;;;;;;;5032398;28;20057;-89
2022/07/03 12:14:40;;;;;;;0.00;0.00;;;;;;;;;;5025779;28;20041;-89
2022/07/03 12:17:07;;;;;;;0.00;0.00;;;;;;;;;;5029894;28;20037;-90
2022/07/03 12:19:33;;;;;;;2.08;1.42;;;;;;;;;;5032990;28;20052;-88
2022/07/03 12:21:59;;;;;;;0.00;0.00;;;;;;;;;;5040670;28;20033;-88
2022/07/03 12:24:51;;;;;;;0.00;0.00;;;;;;;;;;5029855;28;20160;-90
2022/07/03 12:27:17;;;;;;;0.00;0.00;;;;;;;;;;5050419;28;20050;-91
2022/07/03 12:29:43;;;;;;;0.05;0.05;;;;;;;;;;5032056;28;20518;-91
2022/07/03 12:32:10;;;;;;;0.00;0.00;;;;;;;;;;5045117;28;20528;-87
2022/07/03 12:34:37;;;;;;;0.00;0.00;;;;;;;;;;5040932;28;20044;-90
2022/07/03 12:37:03;;;;;;;0.00;0.00;;;;;;;;;;5037352;28;20042;-88
2022/07/03 12:39:46;;;;;;;0.00;0.00;;;;;;;;;;5027879;28;20491;-90
2022/07/03 12:42:16;;;;;;;0.00;0.00;;;;;;;;;;5025050;28;20061;-88
2022/07/03 12:44:42;;;;;;;0.10;0.10;;;;;;;;;;5056482;28;20041;-91
2022/07/03 12:47:08;;;;;;;0.00;0.00;;;;;;;;;;5038602;28;20048;-90
2022/07/03 12:49:34;;;;;;;0.00;0.00;;;;;;;;;;5031442;28;20411;-89
2022/07/03 12:52:01;;;;;;;0.00;0.00;;;;;;;;;;5040429;28;20037;-90
2022/07/03 12:54:36;;;;;;;0.08;0.08;;;;;;;;;;5045705;28;20048;-92
2022/07/03 13:00:04;;;;;;;0.03;0.03;;;;;;;;;;5042832;28;20041;-90
2022/07/03 13:02:30;;;;;;;0.00;0.00;;;;;;;;;;5032751;28;20040;-90
2022/07/03 13:05:01;;;;;;;0.00;0.00;;;;;;;;;;5033958;28;20040;-90
2022/07/03 13:07:30;;;;;;;0.00;0.00;;;;;;;;;;5035097;28;20045;-92
2022/07/03 13:10:01;;;;;;;0.00;0.00;;;;;;;;;;5034987;28;20550;-89
2022/07/03 13:12:27;;;;;;;0.00;0.00;;;;;;;;;;5038063;28;20048;-90
2022/07/03 13:14:57;;;;;;;0.10;0.10;;;;;;;;;;5017343;28;20037;-91
2022/07/03 13:17:23;;;;;;;0.00;0.00;;;;;;;;;;5036338;28;20045;-93
2022/07/03 13:19:49;;;;;;;0.10;0.10;;;;;;;;;;5046645;28;20074;-91
2022/07/03 13:22:15;;;;;;;0.00;0.00;;;;;;;;;;5046080;28;20045;-92
2022/07/03 13:24:41;;;;;;;0.10;0.10;;;;;;;;;;5030867;28;20033;-92
2022/07/03 13:27:07;;;;;;;0.10;0.10;;;;;;;;;;5027344;28;20085;-92
2022/07/03 13:29:33;;;;;;;0.10;0.10;;;;;;;;;;5034069;28;20069;-89
2022/07/03 13:31:59;;;;;;;0.03;0.03;;;;;;;;;;5030360;28;20184;-90
2022/07/03 13:34:25;;;;;;;0.00;0.00;;;;;;;;;;5037052;28;20084;-94
2022/07/03 13:36:51;;;;;;;0.00;0.00;;;;;;;;;;5039413;28;20041;-93
2022/07/03 13:39:17;;;;;;;0.10;0.10;;;;;;;;;;5031524;28;20045;-93
2022/07/03 13:41:43;;;;;;;0.00;0.00;;;;;;;;;;5034616;28;20042;-93
2022/07/03 13:44:23;;;;;;;0.20;0.20;;;;;;;;;;5035971;28;20045;-93
2022/07/03 13:46:49;;;;;;;0.10;0.10;;;;;;;;;;5027226;28;20037;-93
2022/07/03 13:49:15;;;;;;;0.08;0.08;;;;;;;;;;5053540;28;20040;-94
2022/07/03 13:51:41;;;;;;;0.00;0.00;;;;;;;;;;5029805;28;20033;-93
2022/07/03 13:54:07;;;;;;;0.10;0.10;;;;;;;;;;5025686;28;20191;-92
2022/07/03 13:56:33;;;;;;;0.00;0.00;;;;;;;;;;5039144;28;20059;-89
2022/07/03 13:59:16;;;;;;;0.15;0.15;;;;;;;;;;5030526;28;20073;-92
2022/07/03 14:01:42;;;;;;;0.10;0.10;;;;;;;;;;5038780;28;20036;-92
2022/07/03 14:04:08;;;;;;;0.10;0.10;;;;;;;;;;5034888;28;20495;-91
2022/07/03 14:06:35;;;;;;;0.10;0.10;;;;;;;;;;5030750;28;20042;-92
2022/07/03 14:09:01;;;;;;;0.00;0.00;;;;;;;;;;5036925;28;20128;-92
2022/07/03 14:11:30;;;;;;;0.05;0.05;;;;;;;;;;5043738;28;20052;-92
2022/07/03 14:13:56;;;;;;;0.10;0.10;;;;;;;;;;5040545;28;20407;-91
2022/07/03 14:16:24;;;;;;;0.10;0.10;;;;;;;;;;5025575;28;20045;-91
2022/07/03 14:18:50;;;;;;;0.10;0.10;;;;;;;;;;5051171;28;20041;-90
2022/07/03 14:21:16;;;;;;;0.20;0.20;;;;;;;;;;5035468;28;20540;-92
2022/07/03 14:23:42;;;;;;;0.00;0.00;;;;;;;;;;5048102;28;20045;-89
2022/07/03 14:26:08;;;;;;;0.00;0.00;;;;;;;;;;5061351;28;20513;-91
2022/07/03 14:33:45;;;;;;;0.10;0.10;;;;;;;;;;5048212;28;20057;-90
2022/07/03 14:36:11;;;;;;;0.10;0.10;;;;;;;;;;5041813;28;20131;-91
2022/07/03 14:38:37;;;;;;;0.00;0.00;;;;;;;;;;5040682;28;20037;-91
2022/07/03 14:41:03;;;;;;;0.10;0.10;;;;;;;;;;5043817;28;20345;-91
2022/07/03 14:43:29;;;;;;;0.08;0.08;;;;;;;;;;5039206;28;20025;-93
2022/07/03 14:45:55;;;;;;;0.10;0.10;;;;;;;;;;5042894;28;20048;-94
2022/07/03 14:48:21;;;;;;;0.00;0.00;;;;;;;;;;5035809;28;20041;-92
2022/07/03 14:50:47;;;;;;;0.00;0.00;;;;;;;;;;5027068;28;20033;-92
2022/07/03 14:53:14;;;;;;;0.00;0.00;;;;;;;;;;5050331;28;20048;-93
2022/07/03 14:55:41;;;;;;;0.00;0.00;;;;;;;;;;5058221;28;20059;-92
2022/07/03 14:58:17;;;;;;;0.00;0.00;;;;;;;;;;5044157;28;20101;-93
2022/07/03 15:00:56;;;;;;;0.00;0.00;;;;;;;;;;5043698;28;20045;-91
2022/07/03 15:03:32;;;;;;;0.03;0.03;;;;;;;;;;5049834;28;20033;-90
2022/07/03 15:06:11;;;;;;;0.00;0.00;;;;;;;;;;5043685;28;20034;-94
2022/07/03 15:08:43;;;;;;;0.00;0.00;;;;;;;;;;5032903;28;20044;-93
2022/07/03 15:14:06;;;;;;;0.08;0.08;;;;;;;;;;5054877;28;20044;-92
2022/07/03 15:16:33;;;;;;;0.00;0.00;;;;;;;;;;5045041;28;20045;-91
2022/07/03 15:19:02;;;;;;;0.00;0.00;;;;;;;;;;5047461;28;20045;-92